sensor_id;sensor_type;location;lat;lon;timestamp;P1;durP1;ratioP1;P2;durP2;ratioP2
1090;SDS011;534;48.704;9.122;2022-09-30T03:02:54;0.93;;;0.80;;
1090;SDS011;534;48.704;9.122;2022-09-30T03:05:23;0.90;;;0.90;;
1090;SDS011;534;48.704;9.122;2022-09-30T03:07:52;1.00;;;1.00;;
1090;SDS011;534;48.704;9.122;2022-09-30T03:10:19;0.90;;;0.90;;
1090;SDS011;534;48.704;9.122;2022-09-30T03:12:50;1.07;;;0.97;;
1090;SDS011;534;48.704;9.122;2022-09-30T03:15:32;1.10;;;1.10;;
1090;SDS011;534;48.704;9.122;2022-09-30T03:18:12;0.90;;;0.90;;
1090;SDS011;534;48.704;9.122;2022-09-30T03:20:51;1.00;;;1.00;;
1090;SDS011;534;48.704;9.122;2022-09-30T03:23:33;0.93;;;0.93;;
1090;SDS011;534;48.704;9.122;2022-09-30T03:26:12;0.80;;;0.80;;
1090;SDS011;534;48.704;9.122;2022-09-30T03:28:45;0.80;;;0.80;;
1090;SDS011;534;48.704;9.122;2022-09-30T03:31:18;0.90;;;0.90;;
1090;SDS011;534;48.704;9.122;2022-09-30T03:33:54;0.93;;;0.93;;
1090;SDS011;534;48.704;9.122;2022-09-30T03:36:26;0.90;;;0.90;;
1090;SDS011;534;48.704;9.122;2022-09-30T03:39:00;1.47;;;0.97;;
1090;SDS011;534;48.704;9.122;2022-09-30T03:41:32;0.80;;;0.80;;
1090;SDS011;534;48.704;9.122;2022-09-30T03:44:06;0.90;;;0.90;;
1090;SDS011;534;48.704;9.122;2022-09-30T03:46:38;0.90;;;0.90;;
1090;SDS011;534;48.704;9.122;2022-09-30T03:49:09;0.90;;;0.90;;
1090;SDS011;534;48.704;9.122;2022-09-30T03:51:39;1.00;;;1.00;;
1090;SDS011;534;48.704;9.122;2022-09-30T03:54:06;0.90;;;0.90;;
1090;SDS011;534;48.704;9.122;2022-09-30T03:56:34;1.03;;;1.03;;
1090;SDS011;534;48.704;9.122;2022-09-30T03:59:08;0.70;;;0.70;;
1090;SDS011;534;48.704;9.122;2022-09-30T04:01:36;0.93;;;0.93;;
1090;SDS011;534;48.704;9.122;2022-09-30T04:04:03;0.90;;;0.90;;
1090;SDS011;534;48.704;9.122;2022-09-30T04:06:31;0.93;;;0.93;;
1090;SDS011;534;48.704;9.122;2022-09-30T04:08:58;1.10;;;1.00;;
1090;SDS011;534;48.704;9.122;2022-09-30T04:11:25;0.93;;;0.93;;
1090;SDS011;534;48.704;9.122;2022-09-30T04:13:51;0.90;;;0.90;;
1090;SDS011;534;48.704;9.122;2022-09-30T04:16:18;1.00;;;1.00;;
1090;SDS011;534;48.704;9.122;2022-09-30T04:18:45;0.97;;;0.97;;
1090;SDS011;534;48.704;9.122;2022-09-30T04:21:12;1.13;;;1.03;;
1090;SDS011;534;48.704;9.122;2022-09-30T04:23:41;0.90;;;0.90;;
1090;SDS011;534;48.704;9.122;2022-09-30T04:26:09;1.27;;;0.80;;
1090;SDS011;534;48.704;9.122;2022-09-30T04:28:37;0.80;;;0.80;;
1090;SDS011;534;48.704;9.122;2022-09-30T04:31:04;0.90;;;0.90;;
1090;SDS011;534;48.704;9.122;2022-09-30T04:33:31;0.90;;;0.90;;
1090;SDS011;534;48.704;9.122;2022-09-30T04:35:59;1.17;;;1.10;;
1090;SDS011;534;48.704;9.122;2022-09-30T04:38:26;0.90;;;0.90;;
1090;SDS011;534;48.704;9.122;2022-09-30T04:40:55;1.10;;;0.90;;
1090;SDS011;534;48.704;9.122;2022-09-30T04:43:23;1.00;;;1.00;;
1090;SDS011;534;48.704;9.122;2022-09-30T04:45:50;0.90;;;0.90;;
1090;SDS011;534;48.704;9.122;2022-09-30T04:48:18;1.20;;;1.10;;
1090;SDS011;534;48.704;9.122;2022-09-30T04:50:45;2.00;;;1.00;;
1090;SDS011;534;48.704;9.122;2022-09-30T04:53:12;1.03;;;1.03;;
1090;SDS011;534;48.704;9.122;2022-09-30T04:55:39;1.07;;;0.90;;
1090;SDS011;534;48.704;9.122;2022-09-30T04:58:07;0.70;;;0.70;;
1090;SDS011;534;48.704;9.122;2022-09-30T05:00:34;0.80;;;0.80;;
1090;SDS011;534;48.704;9.122;2022-09-30T05:03:01;0.70;;;0.70;;
1090;SDS011;534;48.704;9.122;2022-09-30T05:05:28;0.90;;;0.90;;
1090;SDS011;534;48.704;9.122;2022-09-30T05:07:58;0.97;;;0.90;;
1090;SDS011;534;48.704;9.122;2022-09-30T05:10:25;0.80;;;0.80;;
1090;SDS011;534;48.704;9.122;2022-09-30T05:12:52;1.20;;;1.10;;
1090;SDS011;534;48.704;9.122;2022-09-30T05:15:20;0.90;;;0.90;;
1090;SDS011;534;48.704;9.122;2022-09-30T05:17:47;1.10;;;1.10;;
1090;SDS011;534;48.704;9.122;2022-09-30T05:20:14;0.87;;;0.87;;
1090;SDS011;534;48.704;9.122;2022-09-30T05:22:41;1.00;;;0.93;;
1090;SDS011;534;48.704;9.122;2022-09-30T05:25:08;1.00;;;1.00;;
1090;SDS011;534;48.704;9.122;2022-09-30T05:27:35;1.00;;;0.90;;
1090;SDS011;534;48.704;9.122;2022-09-30T05:30:01;0.90;;;0.90;;
1090;SDS011;534;48.704;9.122;2022-09-30T05:32:32;0.80;;;0.80;;
1090;SDS011;534;48.704;9.122;2022-09-30T05:34:58;1.00;;;0.90;;
1090;SDS011;534;48.704;9.122;2022-09-30T05:37:27;2.40;;;0.93;;
1090;SDS011;534;48.704;9.122;2022-09-30T05:39:54;1.80;;;1.03;;
1090;SDS011;534;48.704;9.122;2022-09-30T05:42:21;0.90;;;0.90;;
1090;SDS011;534;48.704;9.122;2022-09-30T05:44:47;1.00;;;1.00;;
1090;SDS011;534;48.704;9.122;2022-09-30T05:47:14;1.07;;;0.97;;
1090;SDS011;534;48.704;9.122;2022-09-30T05:49:42;0.73;;;0.73;;
1090;SDS011;534;48.704;9.122;2022-09-30T05:52:10;0.90;;;0.90;;
1090;SDS011;534;48.704;9.122;2022-09-30T05:54:38;0.80;;;0.80;;
1090;SDS011;534;48.704;9.122;2022-09-30T05:57:06;1.13;;;1.03;;
1090;SDS011;534;48.704;9.122;2022-09-30T05:59:33;0.80;;;0.80;;
1090;SDS011;534;48.704;9.122;2022-09-30T06:02:01;0.83;;;0.83;;
1090;SDS011;534;48.704;9.122;2022-09-30T06:04:29;0.87;;;0.87;;
1090;SDS011;534;48.704;9.122;2022-09-30T06:06:57;1.10;;;1.00;;
1090;SDS011;534;48.704;9.122;2022-09-30T06:09:23;1.13;;;0.87;;
1090;SDS011;534;48.704;9.122;2022-09-30T06:11:50;0.87;;;0.87;;
1090;SDS011;534;48.704;9.122;2022-09-30T06:14:23;0.90;;;0.90;;
1090;SDS011;534;48.704;9.122;2022-09-30T06:16:49;1.10;;;1.10;;
1090;SDS011;534;48.704;9.122;2022-09-30T06:19:16;1.07;;;1.07;;
1090;SDS011;534;48.704;9.122;2022-09-30T06:21:43;0.90;;;0.90;;
1090;SDS011;534;48.704;9.122;2022-09-30T06:24:11;1.00;;;1.00;;
1090;SDS011;534;48.704;9.122;2022-09-30T06:26:38;0.80;;;0.80;;
1090;SDS011;534;48.704;9.122;2022-09-30T06:29:06;0.70;;;0.70;;
1090;SDS011;534;48.704;9.122;2022-09-30T06:31:33;1.00;;;1.00;;
1090;SDS011;534;48.704;9.122;2022-09-30T06:33:59;0.90;;;0.90;;
1090;SDS011;534;48.704;9.122;2022-09-30T06:36:26;0.80;;;0.80;;
1090;SDS011;534;48.704;9.122;2022-09-30T06:38:53;0.90;;;0.90;;
1090;SDS011;534;48.704;9.122;2022-09-30T06:41:22;0.90;;;0.90;;
1090;SDS011;534;48.704;9.122;2022-09-30T06:43:52;1.47;;;1.30;;
1090;SDS011;534;48.704;9.122;2022-09-30T06:46:19;0.93;;;0.93;;
1090;SDS011;534;48.704;9.122;2022-09-30T06:48:47;0.90;;;0.90;;
1090;SDS011;534;48.704;9.122;2022-09-30T06:51:17;0.93;;;0.93;;
1090;SDS011;534;48.704;9.122;2022-09-30T06:53:44;1.30;;;1.20;;
1090;SDS011;534;48.704;9.122;2022-09-30T06:56:11;1.10;;;1.10;;
1090;SDS011;534;48.704;9.122;2022-09-30T06:58:40;1.00;;;1.00;;
1090;SDS011;534;48.704;9.122;2022-09-30T07:01:07;1.20;;;1.10;;
1090;SDS011;534;48.704;9.122;2022-09-30T07:03:35;1.03;;;1.03;;
1090;SDS011;534;48.704;9.122;2022-09-30T07:06:02;1.00;;;1.00;;
1090;SDS011;534;48.704;9.122;2022-09-30T07:08:31;1.17;;;1.17;;
1090;SDS011;534;48.704;9.122;2022-09-30T07:11:00;1.20;;;1.10;;
1090;SDS011;534;48.704;9.122;2022-09-30T07:13:29;1.40;;;1.30;;
1090;SDS011;534;48.704;9.122;2022-09-30T07:15:58;1.20;;;1.20;;
1090;SDS011;534;48.704;9.122;2022-09-30T07:18:25;1.10;;;1.10;;
1090;SDS011;534;48.704;9.122;2022-09-30T07:20:52;1.30;;;1.30;;
1090;SDS011;534;48.704;9.122;2022-09-30T07:23:20;1.40;;;1.30;;
1090;SDS011;534;48.704;9.122;2022-09-30T07:25:50;1.40;;;1.30;;
1090;SDS011;534;48.704;9.122;2022-09-30T07:28:20;1.00;;;1.00;;
1090;SDS011;534;48.704;9.122;2022-09-30T07:30:47;1.43;;;1.27;;
1090;SDS011;534;48.704;9.122;2022-09-30T07:33:15;1.43;;;1.33;;
1090;SDS011;534;48.704;9.122;2022-09-30T07:35:51;1.10;;;1.10;;
1090;SDS011;534;48.704;9.122;2022-09-30T07:38:19;1.53;;;1.37;;
1090;SDS011;534;48.704;9.122;2022-09-30T07:40:51;1.70;;;1.60;;
1090;SDS011;534;48.704;9.122;2022-09-30T07:43:19;1.23;;;1.13;;
1090;SDS011;534;48.704;9.122;2022-09-30T07:45:47;1.20;;;1.20;;
1090;SDS011;534;48.704;9.122;2022-09-30T07:48:16;1.13;;;1.13;;
1090;SDS011;534;48.704;9.122;2022-09-30T07:51:01;1.30;;;1.30;;
1090;SDS011;534;48.704;9.122;2022-09-30T07:53:27;1.50;;;1.40;;
1090;SDS011;534;48.704;9.122;2022-09-30T07:55:54;1.87;;;1.77;;
1090;SDS011;534;48.704;9.122;2022-09-30T07:58:21;1.67;;;1.57;;
1090;SDS011;534;48.704;9.122;2022-09-30T08:00:47;1.20;;;1.20;;
1090;SDS011;534;48.704;9.122;2022-09-30T08:03:17;1.40;;;1.40;;
1090;SDS011;534;48.704;9.122;2022-09-30T08:05:43;1.50;;;1.40;;
1090;SDS011;534;48.704;9.122;2022-09-30T08:08:12;1.43;;;1.33;;
1090;SDS011;534;48.704;9.122;2022-09-30T08:10:39;1.40;;;1.30;;
1090;SDS011;534;48.704;9.122;2022-09-30T08:13:06;1.70;;;1.70;;
1090;SDS011;534;48.704;9.122;2022-09-30T08:15:34;1.50;;;1.40;;
1090;SDS011;534;48.704;9.122;2022-09-30T08:18:00;1.93;;;1.83;;
1090;SDS011;534;48.704;9.122;2022-09-30T08:20:28;1.83;;;1.73;;
1090;SDS011;534;48.704;9.122;2022-09-30T08:22:55;1.80;;;1.70;;
1090;SDS011;534;48.704;9.122;2022-09-30T08:25:23;2.00;;;1.90;;
1090;SDS011;534;48.704;9.122;2022-09-30T08:27:50;2.10;;;2.00;;
1090;SDS011;534;48.704;9.122;2022-09-30T08:30:17;1.77;;;1.67;;
1090;SDS011;534;48.704;9.122;2022-09-30T08:32:43;2.03;;;1.93;;
1090;SDS011;534;48.704;9.122;2022-09-30T08:35:10;1.90;;;1.80;;
1090;SDS011;534;48.704;9.122;2022-09-30T08:37:38;1.80;;;1.70;;
1090;SDS011;534;48.704;9.122;2022-09-30T08:40:05;1.73;;;1.63;;
1090;SDS011;534;48.704;9.122;2022-09-30T08:42:42;1.97;;;1.87;;
1090;SDS011;534;48.704;9.122;2022-09-30T08:45:21;2.00;;;1.90;;
1090;SDS011;534;48.704;9.122;2022-09-30T08:47:58;1.77;;;1.67;;
1090;SDS011;534;48.704;9.122;2022-09-30T08:50:33;1.80;;;1.70;;
1090;SDS011;534;48.704;9.122;2022-09-30T08:53:08;2.07;;;1.97;;
1090;SDS011;534;48.704;9.122;2022-09-30T08:55:39;1.57;;;1.47;;
1090;SDS011;534;48.704;9.122;2022-09-30T08:58:10;1.40;;;1.40;;
1090;SDS011;534;48.704;9.122;2022-09-30T09:00:44;1.40;;;1.40;;
1090;SDS011;534;48.704;9.122;2022-09-30T09:03:10;1.80;;;1.70;;
1090;SDS011;534;48.704;9.122;2022-09-30T09:05:41;1.50;;;1.50;;
1090;SDS011;534;48.704;9.122;2022-09-30T09:08:19;1.20;;;1.20;;
1090;SDS011;534;48.704;9.122;2022-09-30T09:10:54;1.37;;;1.37;;
1090;SDS011;534;48.704;9.122;2022-09-30T09:13:33;1.30;;;1.20;;
1090;SDS011;534;48.704;9.122;2022-09-30T09:16:08;1.30;;;1.30;;
1090;SDS011;534;48.704;9.122;2022-09-30T09:18:41;1.43;;;1.33;;
1090;SDS011;534;48.704;9.122;2022-09-30T09:24:13;1.20;;;1.20;;
1090;SDS011;534;48.704;9.122;2022-09-30T09:26:43;1.00;;;1.00;;
1090;SDS011;534;48.704;9.122;2022-09-30T09:29:17;1.37;;;1.27;;
1090;SDS011;534;48.704;9.122;2022-09-30T09:31:51;1.00;;;1.00;;
1090;SDS011;534;48.704;9.122;2022-09-30T09:34:18;1.20;;;1.10;;
1090;SDS011;534;48.704;9.122;2022-09-30T09:36:52;1.10;;;1.10;;
1090;SDS011;534;48.704;9.122;2022-09-30T09:42:30;1.13;;;1.13;;
1090;SDS011;534;48.704;9.122;2022-09-30T09:45:09;1.10;;;1.10;;
1090;SDS011;534;48.704;9.122;2022-09-30T09:47:41;1.13;;;1.13;;
1090;SDS011;534;48.704;9.122;2022-09-30T09:50:12;1.20;;;1.20;;
1090;SDS011;534;48.704;9.122;2022-09-30T09:52:47;1.10;;;1.10;;
1090;SDS011;534;48.704;9.122;2022-09-30T09:55:24;0.90;;;0.90;;
1090;SDS011;534;48.704;9.122;2022-09-30T09:58:03;1.10;;;1.00;;
1090;SDS011;534;48.704;9.122;2022-09-30T10:00:31;1.03;;;0.93;;
1090;SDS011;534;48.704;9.122;2022-09-30T10:03:17;1.00;;;1.00;;
1090;SDS011;534;48.704;9.122;2022-09-30T10:05:57;1.00;;;1.00;;
1090;SDS011;534;48.704;9.122;2022-09-30T10:08:26;0.90;;;0.90;;
1090;SDS011;534;48.704;9.122;2022-09-30T10:10:58;0.93;;;0.93;;
1090;SDS011;534;48.704;9.122;2022-09-30T10:13:28;1.10;;;1.00;;
1090;SDS011;534;48.704;9.122;2022-09-30T10:15:57;0.80;;;0.80;;
1090;SDS011;534;48.704;9.122;2022-09-30T10:18:26;0.77;;;0.77;;
1090;SDS011;534;48.704;9.122;2022-09-30T10:20:56;0.80;;;0.80;;
1090;SDS011;534;48.704;9.122;2022-09-30T10:23:26;0.70;;;0.70;;
1090;SDS011;534;48.704;9.122;2022-09-30T10:25:56;0.90;;;0.70;;
1090;SDS011;534;48.704;9.122;2022-09-30T10:28:26;0.67;;;0.67;;
1090;SDS011;534;48.704;9.122;2022-09-30T10:30:56;0.90;;;0.90;;
1090;SDS011;534;48.704;9.122;2022-09-30T10:33:27;0.63;;;0.63;;
1090;SDS011;534;48.704;9.122;2022-09-30T10:36:02;0.80;;;0.80;;
1090;SDS011;534;48.704;9.122;2022-09-30T10:38:32;0.77;;;0.77;;
1090;SDS011;534;48.704;9.122;2022-09-30T10:41:01;0.73;;;0.70;;
1090;SDS011;534;48.704;9.122;2022-09-30T10:43:31;0.70;;;0.70;;
1090;SDS011;534;48.704;9.122;2022-09-30T10:46:04;2.20;;;0.90;;
1090;SDS011;534;48.704;9.122;2022-09-30T10:48:34;0.67;;;0.67;;
1090;SDS011;534;48.704;9.122;2022-09-30T10:51:03;0.70;;;0.70;;
1090;SDS011;534;48.704;9.122;2022-09-30T10:53:31;0.80;;;0.80;;
1090;SDS011;534;48.704;9.122;2022-09-30T10:56:01;0.70;;;0.70;;
1090;SDS011;534;48.704;9.122;2022-09-30T10:58:39;0.90;;;0.90;;
1090;SDS011;534;48.704;9.122;2022-09-30T11:01:14;0.70;;;0.70;;
1090;SDS011;534;48.704;9.122;2022-09-30T11:03:50;0.70;;;0.70;;
1090;SDS011;534;48.704;9.122;2022-09-30T11:06:21;0.90;;;0.70;;
1090;SDS011;534;48.704;9.122;2022-09-30T11:08:51;0.77;;;0.77;;
1090;SDS011;534;48.704;9.122;2022-09-30T11:11:24;0.90;;;0.90;;
1090;SDS011;534;48.704;9.122;2022-09-30T11:13:55;0.70;;;0.70;;
1090;SDS011;534;48.704;9.122;2022-09-30T11:16:28;0.80;;;0.80;;
1090;SDS011;534;48.704;9.122;2022-09-30T11:19:02;0.70;;;0.70;;
1090;SDS011;534;48.704;9.122;2022-09-30T11:21:36;0.70;;;0.70;;
1090;SDS011;534;48.704;9.122;2022-09-30T11:24:16;0.77;;;0.77;;
1090;SDS011;534;48.704;9.122;2022-09-30T11:26:55;0.70;;;0.70;;
1090;SDS011;534;48.704;9.122;2022-09-30T11:29:32;0.80;;;0.80;;
1090;SDS011;534;48.704;9.122;2022-09-30T11:32:11;0.70;;;0.70;;
1090;SDS011;534;48.704;9.122;2022-09-30T11:34:50;0.60;;;0.60;;
1090;SDS011;534;48.704;9.122;2022-09-30T11:37:28;0.70;;;0.67;;
1090;SDS011;534;48.704;9.122;2022-09-30T11:40:13;0.70;;;0.70;;
1090;SDS011;534;48.704;9.122;2022-09-30T11:42:57;0.70;;;0.70;;
1090;SDS011;534;48.704;9.122;2022-09-30T11:45:31;0.70;;;0.70;;
1090;SDS011;534;48.704;9.122;2022-09-30T11:48:10;0.60;;;0.60;;
1090;SDS011;534;48.704;9.122;2022-09-30T11:50:52;0.70;;;0.70;;
1090;SDS011;534;48.704;9.122;2022-09-30T11:53:30;0.60;;;0.60;;
1090;SDS011;534;48.704;9.122;2022-09-30T11:56:09;0.67;;;0.67;;
1090;SDS011;534;48.704;9.122;2022-09-30T11:58:46;0.70;;;0.70;;
1090;SDS011;534;48.704;9.122;2022-09-30T12:01:21;0.80;;;0.80;;
1090;SDS011;534;48.704;9.122;2022-09-30T12:03:55;0.70;;;0.70;;
1090;SDS011;534;48.704;9.122;2022-09-30T12:06:27;0.70;;;0.70;;
1090;SDS011;534;48.704;9.122;2022-09-30T12:09:00;0.80;;;0.80;;
1090;SDS011;534;48.704;9.122;2022-09-30T12:11:34;0.70;;;0.70;;
1090;SDS011;534;48.704;9.122;2022-09-30T12:14:11;0.70;;;0.70;;
1090;SDS011;534;48.704;9.122;2022-09-30T12:16:42;0.70;;;0.70;;
1090;SDS011;534;48.704;9.122;2022-09-30T12:19:12;1.00;;;0.80;;
1090;SDS011;534;48.704;9.122;2022-09-30T12:21:44;0.90;;;0.80;;
1090;SDS011;534;48.704;9.122;2022-09-30T12:24:19;0.67;;;0.67;;
1090;SDS011;534;48.704;9.122;2022-09-30T12:26:50;0.70;;;0.60;;
1090;SDS011;534;48.704;9.122;2022-09-30T12:29:21;0.70;;;0.63;;
1090;SDS011;534;48.704;9.122;2022-09-30T12:32:13;1.00;;;0.70;;
1090;SDS011;534;48.704;9.122;2022-09-30T12:35:29;0.70;;;0.60;;
1090;SDS011;534;48.704;9.122;2022-09-30T12:38:12;1.23;;;0.70;;
1090;SDS011;534;48.704;9.122;2022-09-30T12:40:58;0.60;;;0.60;;
1090;SDS011;534;48.704;9.122;2022-09-30T12:46:53;0.67;;;0.63;;
1090;SDS011;534;48.704;9.122;2022-09-30T12:49:31;0.60;;;0.60;;
1090;SDS011;534;48.704;9.122;2022-09-30T12:52:03;0.60;;;0.50;;
1090;SDS011;534;48.704;9.122;2022-09-30T12:54:32;0.70;;;0.67;;
1090;SDS011;534;48.704;9.122;2022-09-30T12:57:03;1.10;;;0.70;;
1090;SDS011;534;48.704;9.122;2022-09-30T12:59:33;0.60;;;0.57;;
1090;SDS011;534;48.704;9.122;2022-09-30T13:02:04;0.70;;;0.70;;
1090;SDS011;534;48.704;9.122;2022-09-30T13:04:33;0.60;;;0.60;;
1090;SDS011;534;48.704;9.122;2022-09-30T13:07:11;0.60;;;0.50;;
1090;SDS011;534;48.704;9.122;2022-09-30T13:09:55;0.70;;;0.60;;
1090;SDS011;534;48.704;9.122;2022-09-30T13:12:24;0.60;;;0.60;;
1090;SDS011;534;48.704;9.122;2022-09-30T13:18:00;0.70;;;0.60;;
1090;SDS011;534;48.704;9.122;2022-09-30T13:20:51;0.60;;;0.50;;
1090;SDS011;534;48.704;9.122;2022-09-30T13:23:36;0.60;;;0.60;;
1090;SDS011;534;48.704;9.122;2022-09-30T13:26:04;0.60;;;0.57;;
1090;SDS011;534;48.704;9.122;2022-09-30T13:28:47;0.70;;;0.53;;
1090;SDS011;534;48.704;9.122;2022-09-30T13:31:16;0.70;;;0.60;;
1090;SDS011;534;48.704;9.122;2022-09-30T13:33:46;0.70;;;0.70;;
1090;SDS011;534;48.704;9.122;2022-09-30T13:36:28;0.60;;;0.60;;
1090;SDS011;534;48.704;9.122;2022-09-30T13:39:13;0.90;;;0.50;;
1090;SDS011;534;48.704;9.122;2022-09-30T13:41:45;0.60;;;0.60;;
1090;SDS011;534;48.704;9.122;2022-09-30T13:44:24;0.80;;;0.60;;
1090;SDS011;534;48.704;9.122;2022-09-30T13:46:58;0.83;;;0.50;;
1090;SDS011;534;48.704;9.122;2022-09-30T13:49:33;0.63;;;0.63;;
1090;SDS011;534;48.704;9.122;2022-09-30T13:52:06;0.60;;;0.60;;
1090;SDS011;534;48.704;9.122;2022-09-30T13:54:34;0.70;;;0.60;;
1090;SDS011;534;48.704;9.122;2022-09-30T13:57:04;0.60;;;0.60;;
1090;SDS011;534;48.704;9.122;2022-09-30T13:59:37;0.73;;;0.70;;
1090;SDS011;534;48.704;9.122;2022-09-30T14:05:19;0.60;;;0.60;;
1090;SDS011;534;48.704;9.122;2022-09-30T14:08:18;0.70;;;0.60;;
1090;SDS011;534;48.704;9.122;2022-09-30T14:11:01;0.77;;;0.70;;
1090;SDS011;534;48.704;9.122;2022-09-30T14:13:45;0.60;;;0.50;;
1090;SDS011;534;48.704;9.122;2022-09-30T14:19:17;0.80;;;0.60;;
1090;SDS011;534;48.704;9.122;2022-09-30T14:22:01;0.70;;;0.70;;
1090;SDS011;534;48.704;9.122;2022-09-30T14:24:31;0.80;;;0.60;;
1090;SDS011;534;48.704;9.122;2022-09-30T14:27:03;0.70;;;0.60;;
1090;SDS011;534;48.704;9.122;2022-09-30T14:29:42;0.80;;;0.80;;
1090;SDS011;534;48.704;9.122;2022-09-30T14:32:18;0.60;;;0.60;;
1090;SDS011;534;48.704;9.122;2022-09-30T14:34:46;0.80;;;0.70;;
1090;SDS011;534;48.704;9.122;2022-09-30T14:37:18;0.60;;;0.60;;
1090;SDS011;534;48.704;9.122;2022-09-30T14:39:52;0.60;;;0.50;;
1090;SDS011;534;48.704;9.122;2022-09-30T14:42:21;0.60;;;0.60;;
1090;SDS011;534;48.704;9.122;2022-09-30T14:44:53;0.60;;;0.60;;
1090;SDS011;534;48.704;9.122;2022-09-30T14:47:26;0.60;;;0.60;;
1090;SDS011;534;48.704;9.122;2022-09-30T14:49:53;0.67;;;0.60;;
1090;SDS011;534;48.704;9.122;2022-09-30T14:52:37;0.60;;;0.60;;
1090;SDS011;534;48.704;9.122;2022-09-30T14:55:16;0.60;;;0.60;;
1090;SDS011;534;48.704;9.122;2022-09-30T14:57:47;0.60;;;0.60;;
1090;SDS011;534;48.704;9.122;2022-09-30T15:00:19;0.60;;;0.60;;
1090;SDS011;534;48.704;9.122;2022-09-30T15:02:48;0.60;;;0.60;;
1090;SDS011;534;48.704;9.122;2022-09-30T15:05:16;1.27;;;0.60;;
1090;SDS011;534;48.704;9.122;2022-09-30T15:07:44;0.70;;;0.60;;
1090;SDS011;534;48.704;9.122;2022-09-30T15:10:18;0.70;;;0.60;;
1090;SDS011;534;48.704;9.122;2022-09-30T15:12:48;0.60;;;0.50;;
1090;SDS011;534;48.704;9.122;2022-09-30T15:15:23;0.80;;;0.60;;
1090;SDS011;534;48.704;9.122;2022-09-30T15:17:52;0.80;;;0.60;;
1090;SDS011;534;48.704;9.122;2022-09-30T15:20:25;0.70;;;0.70;;
1090;SDS011;534;48.704;9.122;2022-09-30T15:22:56;0.70;;;0.60;;
1090;SDS011;534;48.704;9.122;2022-09-30T15:25:27;0.60;;;0.50;;
1090;SDS011;534;48.704;9.122;2022-09-30T15:27:55;0.60;;;0.53;;
1090;SDS011;534;48.704;9.122;2022-09-30T15:30:23;0.80;;;0.60;;
1090;SDS011;534;48.704;9.122;2022-09-30T15:32:56;0.90;;;0.60;;
1090;SDS011;534;48.704;9.122;2022-09-30T15:35:25;0.60;;;0.60;;
1090;SDS011;534;48.704;9.122;2022-09-30T15:37:53;0.70;;;0.70;;
1090;SDS011;534;48.704;9.122;2022-09-30T15:40:31;0.60;;;0.50;;
1090;SDS011;534;48.704;9.122;2022-09-30T15:43:14;0.60;;;0.60;;
1090;SDS011;534;48.704;9.122;2022-09-30T15:45:56;0.60;;;0.57;;
1090;SDS011;534;48.704;9.122;2022-09-30T15:48:52;0.90;;;0.60;;
1090;SDS011;534;48.704;9.122;2022-09-30T15:56:55;0.70;;;0.60;;
1090;SDS011;534;48.704;9.122;2022-09-30T15:59:22;0.70;;;0.60;;
1090;SDS011;534;48.704;9.122;2022-09-30T16:02:24;0.70;;;0.60;;
1090;SDS011;534;48.704;9.122;2022-09-30T16:04:52;0.60;;;0.60;;
1090;SDS011;534;48.704;9.122;2022-09-30T16:07:19;0.60;;;0.60;;
1090;SDS011;534;48.704;9.122;2022-09-30T16:09:49;2.60;;;0.67;;
1090;SDS011;534;48.704;9.122;2022-09-30T16:12:16;0.80;;;0.80;;
1090;SDS011;534;48.704;9.122;2022-09-30T16:14:47;0.73;;;0.73;;
1090;SDS011;534;48.704;9.122;2022-09-30T16:17:18;1.20;;;1.20;;
1090;SDS011;534;48.704;9.122;2022-09-30T16:19:51;1.00;;;1.00;;
1090;SDS011;534;48.704;9.122;2022-09-30T16:22:32;0.80;;;0.80;;
1090;SDS011;534;48.704;9.122;2022-09-30T16:25:02;0.90;;;0.80;;
1090;SDS011;534;48.704;9.122;2022-09-30T16:27:37;0.80;;;0.80;;
1090;SDS011;534;48.704;9.122;2022-09-30T16:30:04;0.87;;;0.87;;
1090;SDS011;534;48.704;9.122;2022-09-30T16:32:34;1.30;;;1.20;;
1090;SDS011;534;48.704;9.122;2022-09-30T16:35:03;1.80;;;1.70;;
1090;SDS011;534;48.704;9.122;2022-09-30T16:37:31;1.77;;;1.67;;
1090;SDS011;534;48.704;9.122;2022-09-30T16:40:00;1.37;;;1.33;;
1090;SDS011;534;48.704;9.122;2022-09-30T16:42:40;1.03;;;1.00;;
1090;SDS011;534;48.704;9.122;2022-09-30T16:45:07;1.00;;;0.80;;
1090;SDS011;534;48.704;9.122;2022-09-30T16:47:37;0.70;;;0.70;;
1090;SDS011;534;48.704;9.122;2022-09-30T16:50:10;0.70;;;0.70;;
1090;SDS011;534;48.704;9.122;2022-09-30T16:52:42;1.40;;;0.90;;
1090;SDS011;534;48.704;9.122;2022-09-30T16:55:09;0.70;;;0.60;;
1090;SDS011;534;48.704;9.122;2022-09-30T16:57:36;1.00;;;0.60;;
1090;SDS011;534;48.704;9.122;2022-09-30T17:00:05;0.70;;;0.70;;
1090;SDS011;534;48.704;9.122;2022-09-30T17:02:32;1.10;;;0.70;;
1090;SDS011;534;48.704;9.122;2022-09-30T17:05:00;0.70;;;0.70;;
1090;SDS011;534;48.704;9.122;2022-09-30T17:07:27;0.80;;;0.70;;
1090;SDS011;534;48.704;9.122;2022-09-30T17:09:54;0.80;;;0.80;;
1090;SDS011;534;48.704;9.122;2022-09-30T17:12:21;0.80;;;0.80;;
1090;SDS011;534;48.704;9.122;2022-09-30T17:14:49;0.97;;;0.87;;
1090;SDS011;534;48.704;9.122;2022-09-30T17:17:17;0.90;;;0.90;;
1090;SDS011;534;48.704;9.122;2022-09-30T17:19:44;0.80;;;0.80;;
1090;SDS011;534;48.704;9.122;2022-09-30T17:22:12;0.90;;;0.90;;
1090;SDS011;534;48.704;9.122;2022-09-30T17:24:38;0.90;;;0.90;;
1090;SDS011;534;48.704;9.122;2022-09-30T17:27:05;0.87;;;0.87;;
1090;SDS011;534;48.704;9.122;2022-09-30T17:29:32;0.80;;;0.80;;
1090;SDS011;534;48.704;9.122;2022-09-30T17:32:02;1.07;;;0.97;;
1090;SDS011;534;48.704;9.122;2022-09-30T17:34:29;0.80;;;0.80;;
1090;SDS011;534;48.704;9.122;2022-09-30T17:36:56;0.97;;;0.97;;
1090;SDS011;534;48.704;9.122;2022-09-30T17:39:25;0.93;;;0.93;;
1090;SDS011;534;48.704;9.122;2022-09-30T17:41:52;0.80;;;0.80;;
1090;SDS011;534;48.704;9.122;2022-09-30T17:44:37;0.90;;;0.80;;
1090;SDS011;534;48.704;9.122;2022-09-30T17:47:04;0.70;;;0.70;;
1090;SDS011;534;48.704;9.122;2022-09-30T17:49:32;0.73;;;0.73;;
1090;SDS011;534;48.704;9.122;2022-09-30T17:52:00;0.70;;;0.60;;
1090;SDS011;534;48.704;9.122;2022-09-30T17:54:29;1.37;;;0.70;;
1090;SDS011;534;48.704;9.122;2022-09-30T17:56:57;0.70;;;0.60;;
1090;SDS011;534;48.704;9.122;2022-09-30T17:59:24;0.60;;;0.60;;
1090;SDS011;534;48.704;9.122;2022-09-30T18:01:52;0.70;;;0.70;;
1090;SDS011;534;48.704;9.122;2022-09-30T18:04:22;0.70;;;0.70;;
1090;SDS011;534;48.704;9.122;2022-09-30T18:06:53;0.70;;;0.70;;
1090;SDS011;534;48.704;9.122;2022-09-30T18:09:23;0.80;;;0.60;;
1090;SDS011;534;48.704;9.122;2022-09-30T18:11:52;0.70;;;0.70;;
1090;SDS011;534;48.704;9.122;2022-09-30T18:14:20;1.23;;;1.00;;
1090;SDS011;534;48.704;9.122;2022-09-30T18:16:48;0.80;;;0.80;;
1090;SDS011;534;48.704;9.122;2022-09-30T18:19:15;0.80;;;0.80;;
1090;SDS011;534;48.704;9.122;2022-09-30T18:21:42;0.70;;;0.70;;
1090;SDS011;534;48.704;9.122;2022-09-30T18:24:10;0.70;;;0.70;;
1090;SDS011;534;48.704;9.122;2022-09-30T18:26:37;0.90;;;0.80;;
1090;SDS011;534;48.704;9.122;2022-09-30T18:29:09;0.70;;;0.60;;
1090;SDS011;534;48.704;9.122;2022-09-30T18:31:36;0.70;;;0.70;;
1090;SDS011;534;48.704;9.122;2022-09-30T18:34:05;1.23;;;0.87;;
1090;SDS011;534;48.704;9.122;2022-09-30T18:36:32;2.40;;;0.80;;
1090;SDS011;534;48.704;9.122;2022-09-30T18:39:01;0.63;;;0.63;;
1090;SDS011;534;48.704;9.122;2022-09-30T18:41:28;0.60;;;0.60;;
1090;SDS011;534;48.704;9.122;2022-09-30T18:43:56;0.70;;;0.70;;
1090;SDS011;534;48.704;9.122;2022-09-30T18:46:27;1.20;;;0.80;;
1090;SDS011;534;48.704;9.122;2022-09-30T18:48:54;0.60;;;0.60;;
1090;SDS011;534;48.704;9.122;2022-09-30T18:51:21;0.70;;;0.70;;
1090;SDS011;534;48.704;9.122;2022-09-30T18:53:52;1.33;;;0.70;;
1090;SDS011;534;48.704;9.122;2022-09-30T18:56:21;0.80;;;0.80;;
1090;SDS011;534;48.704;9.122;2022-09-30T18:58:48;0.80;;;0.80;;
1090;SDS011;534;48.704;9.122;2022-09-30T19:01:16;0.70;;;0.70;;
1090;SDS011;534;48.704;9.122;2022-09-30T19:03:44;0.80;;;0.80;;
1090;SDS011;534;48.704;9.122;2022-09-30T19:06:10;1.83;;;0.90;;
1090;SDS011;534;48.704;9.122;2022-09-30T19:08:37;0.80;;;0.80;;
1090;SDS011;534;48.704;9.122;2022-09-30T19:11:04;0.70;;;0.70;;
1090;SDS011;534;48.704;9.122;2022-09-30T19:13:38;0.80;;;0.80;;
1090;SDS011;534;48.704;9.122;2022-09-30T19:16:07;0.90;;;0.90;;
1090;SDS011;534;48.704;9.122;2022-09-30T19:18:35;1.00;;;1.00;;
1090;SDS011;534;48.704;9.122;2022-09-30T19:21:04;2.60;;;0.93;;